Time;durP1;ratioP1;P1;durP2;ratioP2;P2;SDS_P1;SDS_P2;PMS_P1;PMS_P2;Temp;Humidity;BMP_temperature;BMP_pressure;BME280_temperature;BME280_humidity;BME280_pressure;Samples;Min_cycle;Max_cycle;Signal;HPM_P1;HPM_P2
2022/09/16 00:00:56;;;;;;;2.58;2.10;;;;;;;;;;7395817;19;19995;-80
2022/09/16 00:03:21;;;;;;;4.30;1.65;;;;;;;;;;7389258;19;20818;-80
2022/09/16 00:05:49;;;;;;;2.15;1.83;;;;;;;;;;7392992;19;20507;-81
2022/09/16 00:08:15;;;;;;;1.77;1.35;;;;;;;;;;7389812;19;20242;-80
2022/09/16 00:10:42;;;;;;;3.42;2.25;;;;;;;;;;7393282;19;20121;-80
2022/09/16 00:13:09;;;;;;;2.63;2.20;;;;;;;;;;7390763;19;20015;-80
2022/09/16 00:15:34;;;;;;;1.92;1.73;;;;;;;;;;7391013;19;20011;-80
2022/09/16 00:18:00;;;;;;;2.58;1.90;;;;;;;;;;7388583;19;20087;-80
2022/09/16 00:20:25;;;;;;;2.75;2.20;;;;;;;;;;7394817;19;20312;-80
2022/09/16 00:22:51;;;;;;;3.03;2.08;;;;;;;;;;7392719;19;20303;-81
2022/09/16 00:25:16;;;;;;;3.95;2.55;;;;;;;;;;7393420;19;20007;-80
2022/09/16 00:27:41;;;;;;;1.90;1.55;;;;;;;;;;7392682;19;20014;-81
2022/09/16 00:30:08;;;;;;;2.92;1.70;;;;;;;;;;7393150;19;20502;-81
2022/09/16 00:32:33;;;;;;;2.47;1.95;;;;;;;;;;7395245;19;20018;-81
2022/09/16 00:34:58;;;;;;;10.43;2.45;;;;;;;;;;7394798;19;20336;-80
2022/09/16 00:37:24;;;;;;;2.55;1.98;;;;;;;;;;7393673;19;20007;-80
2022/09/16 00:39:50;;;;;;;1.55;1.27;;;;;;;;;;7396485;19;20372;-80
2022/09/16 00:42:17;;;;;;;3.78;2.10;;;;;;;;;;7391294;19;20002;-80
2022/09/16 00:45:01;;;;;;;4.32;2.45;;;;;;;;;;7392249;19;20304;-80
2022/09/16 00:47:56;;;;;;;5.97;3.03;;;;;;;;;;7392011;19;20010;-81
2022/09/16 00:50:37;;;;;;;3.30;2.38;;;;;;;;;;7402814;19;20013;-81
2022/09/16 00:53:04;;;;;;;2.20;1.73;;;;;;;;;;7400199;19;20017;-80
2022/09/16 00:55:34;;;;;;;3.70;2.75;;;;;;;;;;7398755;19;20006;-80
2022/09/16 00:58:20;;;;;;;4.93;2.63;;;;;;;;;;7393177;19;20016;-78
2022/09/16 01:00:45;;;;;;;4.88;2.60;;;;;;;;;;7393905;19;20007;-77
2022/09/16 01:03:10;;;;;;;4.03;2.17;;;;;;;;;;7396843;19;20006;-77
2022/09/16 01:05:37;;;;;;;3.92;3.30;;;;;;;;;;7393702;19;20023;-77
2022/09/16 01:08:03;;;;;;;2.67;2.15;;;;;;;;;;7395990;19;20010;-78
2022/09/16 01:10:30;;;;;;;3.92;2.47;;;;;;;;;;7395248;19;20011;-77
2022/09/16 01:13:03;;;;;;;2.20;1.75;;;;;;;;;;7397116;19;20052;-84
2022/09/16 01:15:41;;;;;;;4.32;2.13;;;;;;;;;;7396980;19;20070;-81
2022/09/16 01:18:30;;;;;;;2.55;2.00;;;;;;;;;;7398655;19;20496;-81
2022/09/16 01:21:17;;;;;;;3.25;2.10;;;;;;;;;;7395689;19;20378;-81
2022/09/16 01:24:02;;;;;;;2.75;2.10;;;;;;;;;;7397713;19;20017;-81
2022/09/16 01:26:30;;;;;;;1.85;1.48;;;;;;;;;;7398430;19;19999;-81
2022/09/16 01:29:23;;;;;;;3.08;1.88;;;;;;;;;;7396251;19;20019;-81
2022/09/16 01:32:27;;;;;;;2.03;1.77;;;;;;;;;;7397418;19;20006;-81
2022/09/16 01:34:52;;;;;;;1.85;1.60;;;;;;;;;;7399683;19;20014;-81
2022/09/16 01:37:32;;;;;;;3.25;2.00;;;;;;;;;;7397399;19;20118;-81
2022/09/16 01:40:15;;;;;;;4.72;2.22;;;;;;;;;;7396141;19;20006;-81
2022/09/16 01:42:49;;;;;;;2.63;2.28;;;;;;;;;;7399535;19;20443;-82
2022/09/16 01:45:36;;;;;;;3.25;2.50;;;;;;;;;;7399214;19;20474;-80
2022/09/16 01:48:33;;;;;;;2.40;1.90;;;;;;;;;;7394746;19;20477;-79
2022/09/16 01:51:09;;;;;;;2.47;2.28;;;;;;;;;;7398346;19;20039;-80
2022/09/16 01:53:44;;;;;;;2.35;1.80;;;;;;;;;;7398473;19;20041;-80
2022/09/16 01:56:28;;;;;;;2.45;1.88;;;;;;;;;;7397166;19;20023;-79
2022/09/16 01:59:06;;;;;;;2.42;1.90;;;;;;;;;;7393336;19;20006;-79
2022/09/16 02:01:55;;;;;;;2.53;2.17;;;;;;;;;;7398456;19;20455;-79
2022/09/16 02:04:25;;;;;;;3.47;1.60;;;;;;;;;;7395866;19;20018;-79
2022/09/16 02:06:54;;;;;;;3.67;2.10;;;;;;;;;;7396927;19;20002;-80
2022/09/16 02:09:25;;;;;;;3.15;1.67;;;;;;;;;;7400045;19;19999;-80
2022/09/16 02:11:56;;;;;;;3.03;2.53;;;;;;;;;;7396378;19;20003;-80
2022/09/16 02:14:25;;;;;;;5.13;2.75;;;;;;;;;;7397951;19;20030;-80
2022/09/16 02:16:59;;;;;;;5.32;2.78;;;;;;;;;;7396506;19;20013;-80
2022/09/16 02:19:50;;;;;;;8.05;3.67;;;;;;;;;;7396254;19;20014;-80
2022/09/16 02:22:25;;;;;;;3.95;2.70;;;;;;;;;;7397283;19;20018;-80
2022/09/16 02:24:53;;;;;;;4.18;2.83;;;;;;;;;;7398259;19;20006;-80
2022/09/16 02:27:21;;;;;;;4.20;2.92;;;;;;;;;;7395433;19;20027;-80
2022/09/16 02:29:55;;;;;;;4.75;3.42;;;;;;;;;;7395230;19;20074;-80
2022/09/16 02:32:23;;;;;;;4.95;3.28;;;;;;;;;;7397403;19;20013;-80
2022/09/16 02:34:50;;;;;;;4.10;3.55;;;;;;;;;;7398938;19;20006;-80
2022/09/16 02:37:27;;;;;;;5.82;3.60;;;;;;;;;;7396483;19;20014;-79
2022/09/16 02:39:56;;;;;;;3.95;3.08;;;;;;;;;;7398368;19;20404;-79
2022/09/16 02:42:22;;;;;;;3.25;2.40;;;;;;;;;;7394484;19;20483;-80
2022/09/16 02:44:47;;;;;;;5.13;3.35;;;;;;;;;;7394637;19;20019;-80
2022/09/16 02:47:25;;;;;;;6.50;3.92;;;;;;;;;;7391875;19;20010;-80
2022/09/16 02:50:09;;;;;;;5.40;3.03;;;;;;;;;;7397533;19;20023;-80
2022/09/16 02:52:54;;;;;;;6.35;3.33;;;;;;;;;;7397436;19;19991;-80
2022/09/16 02:55:32;;;;;;;4.93;3.20;;;;;;;;;;7395859;19;20010;-80
2022/09/16 02:57:57;;;;;;;3.88;3.05;;;;;;;;;;7392503;19;20016;-80
2022/09/16 03:00:24;;;;;;;4.50;3.30;;;;;;;;;;7395278;19;20011;-81
2022/09/16 03:02:51;;;;;;;4.72;3.53;;;;;;;;;;7391501;19;20010;-81
2022/09/16 03:05:17;;;;;;;5.35;3.58;;;;;;;;;;7395849;19;20014;-81
2022/09/16 03:07:42;;;;;;;4.75;3.28;;;;;;;;;;7395305;19;20002;-82
2022/09/16 03:10:11;;;;;;;3.30;2.80;;;;;;;;;;7393680;19;20082;-81
2022/09/16 03:12:45;;;;;;;5.78;3.40;;;;;;;;;;7394277;19;20797;-82
2022/09/16 03:15:25;;;;;;;6.00;3.43;;;;;;;;;;7399020;19;20041;-82
2022/09/16 03:18:16;;;;;;;7.18;3.40;;;;;;;;;;7393945;19;20458;-82
2022/09/16 03:20:54;;;;;;;6.35;3.50;;;;;;;;;;7396570;19;19998;-82
2022/09/16 03:23:47;;;;;;;5.90;4.03;;;;;;;;;;7398464;19;20017;-82
2022/09/16 03:26:15;;;;;;;4.68;3.38;;;;;;;;;;7397369;19;20033;-81
2022/09/16 03:28:59;;;;;;;4.53;3.58;;;;;;;;;;7395862;19;20660;-82
2022/09/16 03:31:28;;;;;;;7.97;3.90;;;;;;;;;;7395717;19;20003;-81
2022/09/16 03:34:13;;;;;;;5.80;3.95;;;;;;;;;;7394810;19;20002;-82
2022/09/16 03:36:44;;;;;;;4.80;3.88;;;;;;;;;;7395200;19;20007;-82
2022/09/16 03:39:11;;;;;;;3.58;2.90;;;;;;;;;;7393421;19;20466;-82
2022/09/16 03:41:37;;;;;;;5.07;3.85;;;;;;;;;;7395209;19;20353;-82
2022/09/16 03:44:02;;;;;;;5.15;3.92;;;;;;;;;;7394800;19;20021;-82
2022/09/16 03:46:28;;;;;;;6.03;3.55;;;;;;;;;;7394767;19;20006;-82
2022/09/16 03:48:55;;;;;;;3.90;2.97;;;;;;;;;;7397054;19;19991;-82
2022/09/16 03:51:20;;;;;;;6.15;3.67;;;;;;;;;;7393887;19;19994;-82
2022/09/16 03:53:46;;;;;;;6.05;3.50;;;;;;;;;;7395258;19;20596;-82
2022/09/16 03:56:11;;;;;;;5.75;3.22;;;;;;;;;;7395591;19;20006;-82
2022/09/16 03:58:36;;;;;;;6.57;3.15;;;;;;;;;;7393505;19;20003;-82
2022/09/16 04:01:02;;;;;;;6.70;3.55;;;;;;;;;;7394380;19;20024;-81
2022/09/16 04:03:28;;;;;;;4.95;3.00;;;;;;;;;;7396190;19;20035;-82
2022/09/16 04:05:55;;;;;;;5.20;2.88;;;;;;;;;;7397288;19;20006;-82
2022/09/16 04:08:20;;;;;;;5.40;3.42;;;;;;;;;;7394454;19;19999;-82
2022/09/16 04:10:57;;;;;;;5.82;2.97;;;;;;;;;;7396172;19;20018;-82
2022/09/16 04:13:23;;;;;;;4.97;3.08;;;;;;;;;;7396419;19;20015;-82
2022/09/16 04:15:48;;;;;;;4.40;2.55;;;;;;;;;;7398736;19;20015;-82
2022/09/16 04:18:14;;;;;;;3.65;2.83;;;;;;;;;;7394030;19;20094;-82
2022/09/16 04:20:39;;;;;;;3.55;2.92;;;;;;;;;;7394129;19;20023;-82
2022/09/16 04:23:04;;;;;;;4.10;2.50;;;;;;;;;;7397040;19;20003;-82
2022/09/16 04:25:29;;;;;;;3.83;2.85;;;;;;;;;;7403834;19;20007;-82
2022/09/16 04:27:56;;;;;;;3.75;2.75;;;;;;;;;;7402245;19;20428;-81
2022/09/16 04:30:21;;;;;;;4.28;2.42;;;;;;;;;;7399935;19;20062;-80
2022/09/16 04:32:47;;;;;;;9.82;3.22;;;;;;;;;;7403300;19;19990;-80
2022/09/16 04:35:12;;;;;;;5.00;3.53;;;;;;;;;;7399701;19;20007;-80
2022/09/16 04:37:37;;;;;;;3.60;3.00;;;;;;;;;;7402639;19;19995;-80
2022/09/16 04:40:03;;;;;;;4.38;2.83;;;;;;;;;;7399721;19;20352;-81
2022/09/16 04:42:28;;;;;;;4.57;2.65;;;;;;;;;;7399831;19;20018;-83
2022/09/16 04:44:53;;;;;;;4.88;3.00;;;;;;;;;;7405668;19;20341;-83
2022/09/16 04:47:19;;;;;;;3.60;2.38;;;;;;;;;;7403444;19;20015;-82
2022/09/16 04:49:44;;;;;;;4.22;3.00;;;;;;;;;;7403490;19;20018;-82
2022/09/16 04:52:10;;;;;;;5.22;3.20;;;;;;;;;;7405190;19;19998;-82
2022/09/16 04:54:35;;;;;;;5.32;2.97;;;;;;;;;;7402667;19;20010;-82
2022/09/16 04:57:00;;;;;;;3.88;3.10;;;;;;;;;;7401032;19;20477;-83
2022/09/16 04:59:26;;;;;;;4.07;3.00;;;;;;;;;;7406654;19;20002;-87
2022/09/16 05:01:51;;;;;;;3.75;2.80;;;;;;;;;;7402302;19;20006;-85
2022/09/16 05:04:16;;;;;;;6.57;3.13;;;;;;;;;;7405346;19;20015;-84
2022/09/16 05:06:43;;;;;;;6.10;3.58;;;;;;;;;;7398811;19;20372;-80
2022/09/16 05:09:10;;;;;;;5.05;3.35;;;;;;;;;;7403506;19;20007;-86
2022/09/16 05:11:37;;;;;;;7.65;3.13;;;;;;;;;;7406761;19;20009;-88
2022/09/16 05:14:05;;;;;;;4.18;2.30;;;;;;;;;;7407548;19;19998;-87
2022/09/16 05:16:34;;;;;;;4.20;3.05;;;;;;;;;;7402134;19;20042;-85
2022/09/16 05:19:03;;;;;;;3.88;2.88;;;;;;;;;;7405005;19;20009;-85
2022/09/16 05:21:29;;;;;;;4.82;2.97;;;;;;;;;;7399190;19;20011;-86
2022/09/16 05:23:58;;;;;;;6.88;3.20;;;;;;;;;;7398982;19;20003;-84
2022/09/16 05:26:26;;;;;;;3.83;3.00;;;;;;;;;;7397407;19;21582;-80
2022/09/16 05:28:52;;;;;;;6.13;2.88;;;;;;;;;;7395600;19;20010;-87
2022/09/16 05:31:31;;;;;;;2.75;2.45;;;;;;;;;;7402132;19;20007;-86
2022/09/16 05:34:02;;;;;;;11.50;3.50;;;;;;;;;;7404100;19;20006;-85
2022/09/16 05:36:30;;;;;;;4.22;3.20;;;;;;;;;;7401072;19;20065;-86
2022/09/16 05:38:56;;;;;;;3.97;2.72;;;;;;;;;;7397857;19;19999;-86
2022/09/16 05:41:22;;;;;;;6.80;3.50;;;;;;;;;;7401942;19;19991;-83
2022/09/16 05:43:47;;;;;;;5.38;3.22;;;;;;;;;;7401317;19;20009;-86
2022/09/16 05:46:19;;;;;;;5.72;3.20;;;;;;;;;;7404321;19;20018;-86
2022/09/16 05:48:44;;;;;;;9.48;3.55;;;;;;;;;;7398778;19;20057;-85
2022/09/16 05:51:13;;;;;;;3.55;2.78;;;;;;;;;;7395137;19;20712;-85
2022/09/16 05:53:39;;;;;;;4.43;2.85;;;;;;;;;;7392347;19;20664;-80
2022/09/16 05:56:04;;;;;;;6.30;3.13;;;;;;;;;;7393073;19;20006;-79
2022/09/16 05:58:31;;;;;;;4.63;2.83;;;;;;;;;;7392869;19;20011;-86
2022/09/16 06:01:06;;;;;;;9.88;3.05;;;;;;;;;;7392651;19;20010;-86
2022/09/16 06:03:33;;;;;;;3.43;2.87;;;;;;;;;;7393692;19;20041;-88
2022/09/16 06:06:10;;;;;;;4.95;3.33;;;;;;;;;;7395603;19;20252;-87
2022/09/16 06:08:36;;;;;;;3.95;3.08;;;;;;;;;;7390631;19;20010;-86
2022/09/16 06:11:06;;;;;;;5.25;3.38;;;;;;;;;;7391470;19;20001;-87
2022/09/16 06:13:32;;;;;;;5.55;3.80;;;;;;;;;;7396591;19;20007;-87
2022/09/16 06:15:58;;;;;;;5.55;3.10;;;;;;;;;;7396016;19;20420;-87
2022/09/16 06:18:26;;;;;;;5.82;3.45;;;;;;;;;;7394648;19;19998;-87
2022/09/16 06:20:51;;;;;;;4.50;3.00;;;;;;;;;;7396795;19;20017;-87
2022/09/16 06:23:18;;;;;;;4.10;3.35;;;;;;;;;;7391396;19;20011;-87
2022/09/16 06:25:44;;;;;;;7.22;3.80;;;;;;;;;;7391619;19;20002;-86
2022/09/16 06:28:10;;;;;;;5.05;3.58;;;;;;;;;;7392469;19;20690;-85
2022/09/16 06:30:36;;;;;;;4.00;2.65;;;;;;;;;;7388674;19;20039;-83
2022/09/16 06:33:02;;;;;;;7.13;3.38;;;;;;;;;;7393384;19;20010;-85
2022/09/16 06:35:27;;;;;;;6.93;3.40;;;;;;;;;;7393397;19;20006;-83
2022/09/16 06:37:53;;;;;;;4.75;2.90;;;;;;;;;;7393465;19;20002;-85
2022/09/16 06:40:18;;;;;;;5.80;3.95;;;;;;;;;;7390591;19;20010;-84
2022/09/16 06:42:44;;;;;;;7.18;4.28;;;;;;;;;;7390665;19;20014;-85
2022/09/16 06:45:09;;;;;;;8.18;3.90;;;;;;;;;;7391223;19;20752;-85
2022/09/16 06:47:35;;;;;;;5.32;3.78;;;;;;;;;;7389468;19;19995;-86
2022/09/16 06:50:00;;;;;;;7.75;3.65;;;;;;;;;;7387971;19;20018;-83
2022/09/16 06:52:26;;;;;;;4.65;3.47;;;;;;;;;;7393243;19;20006;-83
2022/09/16 06:54:52;;;;;;;7.15;3.70;;;;;;;;;;7395473;19;20097;-84
2022/09/16 06:57:19;;;;;;;4.95;3.65;;;;;;;;;;7393749;19;20447;-83
2022/09/16 06:59:44;;;;;;;4.60;3.70;;;;;;;;;;7388367;19;20007;-83
2022/09/16 07:02:10;;;;;;;6.20;4.10;;;;;;;;;;7392306;19;20090;-84
2022/09/16 07:04:36;;;;;;;4.57;3.13;;;;;;;;;;7394545;19;20007;-84
2022/09/16 07:07:02;;;;;;;5.93;4.07;;;;;;;;;;7391267;19;20010;-84
2022/09/16 07:09:27;;;;;;;8.68;4.57;;;;;;;;;;7394140;19;20010;-84
2022/09/16 07:11:53;;;;;;;5.03;3.53;;;;;;;;;;7392974;19;20017;-84
2022/09/16 07:14:18;;;;;;;7.60;3.40;;;;;;;;;;7389742;19;20006;-85
2022/09/16 07:16:43;;;;;;;5.55;3.60;;;;;;;;;;7391412;19;20014;-84
2022/09/16 07:19:09;;;;;;;5.55;3.53;;;;;;;;;;7391210;19;20005;-86
2022/09/16 07:21:34;;;;;;;4.20;3.22;;;;;;;;;;7390323;19;20003;-86
2022/09/16 07:24:01;;;;;;;4.07;3.15;;;;;;;;;;7387996;19;20010;-84
2022/09/16 07:26:32;;;;;;;6.55;4.13;;;;;;;;;;7389501;19;20500;-82
2022/09/16 07:29:00;;;;;;;6.85;4.13;;;;;;;;;;7388965;19;20007;-83
2022/09/16 07:31:29;;;;;;;8.85;3.25;;;;;;;;;;7389668;19;20367;-83
2022/09/16 07:33:57;;;;;;;8.30;4.10;;;;;;;;;;7392000;19;20022;-85
2022/09/16 07:36:25;;;;;;;8.73;3.85;;;;;;;;;;7389747;19;20036;-85
2022/09/16 07:38:51;;;;;;;5.57;3.95;;;;;;;;;;7391799;19;20085;-82
2022/09/16 07:41:19;;;;;;;5.25;3.20;;;;;;;;;;7388561;19;20400;-86
2022/09/16 07:43:45;;;;;;;10.68;3.83;;;;;;;;;;7392508;19;20018;-82
2022/09/16 07:46:12;;;;;;;5.32;3.90;;;;;;;;;;7392560;19;20014;-86
2022/09/16 07:48:38;;;;;;;7.78;3.67;;;;;;;;;;7393445;19;20048;-86
2022/09/16 07:51:09;;;;;;;11.35;3.00;;;;;;;;;;7386130;19;20616;-81
2022/09/16 07:53:36;;;;;;;5.03;3.67;;;;;;;;;;7392675;19;20006;-85
2022/09/16 07:56:08;;;;;;;7.25;4.40;;;;;;;;;;7394188;19;20018;-84
2022/09/16 07:58:33;;;;;;;6.25;3.55;;;;;;;;;;7385580;19;20010;-80
2022/09/16 08:00:59;;;;;;;8.15;4.43;;;;;;;;;;7391279;19;20006;-84
2022/09/16 08:03:24;;;;;;;6.03;3.95;;;;;;;;;;7389783;19;20007;-83
2022/09/16 08:05:50;;;;;;;8.50;4.07;;;;;;;;;;7391960;19;20036;-80
2022/09/16 08:08:15;;;;;;;7.72;4.43;;;;;;;;;;7390547;19;20010;-86
2022/09/16 08:10:40;;;;;;;8.20;4.20;;;;;;;;;;7382524;19;20546;-85
2022/09/16 08:13:07;;;;;;;7.28;5.00;;;;;;;;;;7387792;19;20006;-84
2022/09/16 08:15:33;;;;;;;7.40;4.90;;;;;;;;;;7394163;19;20002;-84
2022/09/16 08:17:58;;;;;;;6.15;4.40;;;;;;;;;;7391493;19;20083;-83
2022/09/16 08:20:25;;;;;;;7.72;4.70;;;;;;;;;;7388576;19;20011;-85
2022/09/16 08:22:50;;;;;;;5.63;4.28;;;;;;;;;;7387686;19;20106;-81
2022/09/16 08:25:16;;;;;;;5.05;3.83;;;;;;;;;;7389020;19;20071;-83
2022/09/16 08:27:41;;;;;;;6.70;4.32;;;;;;;;;;7389165;19;20006;-86
2022/09/16 08:30:08;;;;;;;7.03;4.50;;;;;;;;;;7391324;19;20022;-88
2022/09/16 08:32:34;;;;;;;6.45;4.45;;;;;;;;;;7388530;19;20022;-87
2022/09/16 08:34:59;;;;;;;8.07;4.80;;;;;;;;;;7389595;19;20393;-89
2022/09/16 08:37:24;;;;;;;5.47;3.33;;;;;;;;;;7389905;19;20003;-86
2022/09/16 08:39:50;;;;;;;4.68;3.67;;;;;;;;;;7390659;19;20015;-85
2022/09/16 08:42:30;;;;;;;5.72;3.80;;;;;;;;;;7388002;19;20010;-86
2022/09/16 08:45:08;;;;;;;9.05;4.15;;;;;;;;;;7394321;19;20006;-85
2022/09/16 08:47:55;;;;;;;14.88;5.22;;;;;;;;;;7390314;19;20010;-85
2022/09/16 08:50:35;;;;;;;7.30;4.25;;;;;;;;;;7393192;19;20010;-86
2022/09/16 08:53:04;;;;;;;7.68;3.85;;;;;;;;;;7390758;19;20032;-86
2022/09/16 08:55:38;;;;;;;6.97;4.72;;;;;;;;;;7381814;19;20074;-87
2022/09/16 08:58:34;;;;;;;8.07;3.88;;;;;;;;;;7384395;19;20029;-88
2022/09/16 09:01:10;;;;;;;5.30;3.90;;;;;;;;;;7388792;19;20035;-88
2022/09/16 09:03:41;;;;;;;4.25;3.17;;;;;;;;;;7387183;19;20377;-86
2022/09/16 09:06:26;;;;;;;5.18;3.28;;;;;;;;;;7382306;19;20028;-86
2022/09/16 09:09:30;;;;;;;6.63;3.92;;;;;;;;;;7387159;19;20011;-86
2022/09/16 09:12:13;;;;;;;4.72;2.83;;;;;;;;;;7394287;19;20006;-89
2022/09/16 09:15:06;;;;;;;4.82;2.65;;;;;;;;;;7396927;19;20007;-89
2022/09/16 09:18:06;;;;;;;3.58;2.75;;;;;;;;;;7392146;19;20006;-88
2022/09/16 09:20:47;;;;;;;5.10;3.17;;;;;;;;;;7394015;19;20002;-79
2022/09/16 09:23:26;;;;;;;4.43;2.55;;;;;;;;;;7392502;19;20014;-81
2022/09/16 09:26:09;;;;;;;4.10;3.03;;;;;;;;;;7392572;19;20522;-82
2022/09/16 09:28:52;;;;;;;4.78;2.60;;;;;;;;;;7389339;19;20006;-80
2022/09/16 09:31:38;;;;;;;4.45;2.97;;;;;;;;;;7393351;19;20010;-83
2022/09/16 09:34:41;;;;;;;5.03;2.67;;;;;;;;;;7395534;19;20347;-79
2022/09/16 09:37:21;;;;;;;4.72;2.45;;;;;;;;;;7405752;19;20014;-82
2022/09/16 09:40:42;;;;;;;3.85;2.60;;;;;;;;;;7403681;19;20002;-86
2022/09/16 09:43:22;;;;;;;4.55;3.05;;;;;;;;;;7403722;19;20040;-82
2022/09/16 09:46:02;;;;;;;5.65;2.90;;;;;;;;;;7404305;19;19999;-84
2022/09/16 09:48:39;;;;;;;4.57;2.60;;;;;;;;;;7403771;19;20020;-85
2022/09/16 09:51:19;;;;;;;2.75;1.70;;;;;;;;;;7396425;19;20010;-82
2022/09/16 09:53:49;;;;;;;4.25;1.83;;;;;;;;;;7395811;19;19999;-83
2022/09/16 09:56:29;;;;;;;3.65;1.65;;;;;;;;;;7396954;19;20034;-81
2022/09/16 09:59:14;;;;;;;3.63;1.98;;;;;;;;;;7393660;19;20016;-83
2022/09/16 10:01:39;;;;;;;4.70;1.83;;;;;;;;;;7398139;19;20010;-84
2022/09/16 10:04:13;;;;;;;4.03;2.15;;;;;;;;;;7403958;19;20301;-82
2022/09/16 10:06:38;;;;;;;3.95;2.10;;;;;;;;;;7395189;19;20007;-84
2022/09/16 10:09:04;;;;;;;2.88;1.83;;;;;;;;;;7404805;19;20044;-85
2022/09/16 10:11:31;;;;;;;2.70;2.25;;;;;;;;;;7409384;19;20025;-86
2022/09/16 10:13:59;;;;;;;5.43;2.20;;;;;;;;;;7408145;19;20014;-85
2022/09/16 10:16:31;;;;;;;4.55;2.22;;;;;;;;;;7407545;19;20384;-87
2022/09/16 10:19:21;;;;;;;2.50;1.88;;;;;;;;;;7405370;19;20017;-86
2022/09/16 10:21:49;;;;;;;7.20;1.80;;;;;;;;;;7407035;19;20146;-83
2022/09/16 10:24:29;;;;;;;6.38;1.27;;;;;;;;;;7404115;19;20077;-84
2022/09/16 10:26:56;;;;;;;1.95;1.35;;;;;;;;;;7405927;19;20006;-82
2022/09/16 10:29:21;;;;;;;2.95;1.27;;;;;;;;;;7396359;19;20464;-83
2022/09/16 10:31:47;;;;;;;1.30;1.15;;;;;;;;;;7403729;19;20010;-84
2022/09/16 10:34:32;;;;;;;3.78;1.35;;;;;;;;;;7393951;19;20010;-85
2022/09/16 10:37:00;;;;;;;2.85;1.40;;;;;;;;;;7409763;19;19997;-89
2022/09/16 10:39:27;;;;;;;3.40;1.60;;;;;;;;;;7414330;19;20291;-89
2022/09/16 10:41:52;;;;;;;3.80;1.70;;;;;;;;;;7412326;19;20003;-87
2022/09/16 10:44:28;;;;;;;2.25;1.60;;;;;;;;;;7414783;19;20039;-88
2022/09/16 10:47:08;;;;;;;2.28;1.45;;;;;;;;;;7414430;19;20018;-88
2022/09/16 10:49:43;;;;;;;2.70;1.42;;;;;;;;;;7415073;19;20014;-88
2022/09/16 10:52:14;;;;;;;;;;;;;;;;;;7412405;19;20035;-89
2022/09/16 10:54:42;;;;;;;1.90;1.52;;;;;;;;;;7406624;19;19919;-88
2022/09/16 10:57:25;;;;;;;1.80;1.30;;;;;;;;;;7406247;19;20011;-92
2022/09/16 11:00:13;;;;;;;3.45;1.60;;;;;;;;;;7402358;19;20010;-86
2022/09/16 11:03:20;;;;;;;3.85;1.60;;;;;;;;;;7392759;19;20014;-84
2022/09/16 11:06:25;;;;;;;3.17;1.35;;;;;;;;;;7396519;19;20014;-85
2022/09/16 11:08:53;;;;;;;4.13;1.55;;;;;;;;;;7401966;19;20471;-89
2022/09/16 11:11:39;;;;;;;4.82;1.58;;;;;;;;;;7401032;19;19995;-88
2022/09/16 11:14:26;;;;;;;1.92;1.60;;;;;;;;;;7396362;19;20011;-85
2022/09/16 11:17:12;;;;;;;2.88;1.65;;;;;;;;;;7404536;19;20003;-89
2022/09/16 11:19:59;;;;;;;3.42;2.83;;;;;;;;;;7398226;19;20011;-79
2022/09/16 11:22:53;;;;;;;3.33;1.85;;;;;;;;;;7400512;19;20007;-86
2022/09/16 11:25:45;;;;;;;2.05;1.33;;;;;;;;;;7402279;19;20006;-86
2022/09/16 11:28:37;;;;;;;2.00;1.60;;;;;;;;;;7403873;19;20007;-87
2022/09/16 11:31:17;;;;;;;2.80;1.63;;;;;;;;;;7404118;19;20395;-85
2022/09/16 11:34:07;;;;;;;1.85;1.50;;;;;;;;;;7399057;19;20040;-89
2022/09/16 11:36:54;;;;;;;3.08;1.42;;;;;;;;;;7405564;19;20007;-87
2022/09/16 11:39:45;;;;;;;2.00;1.27;;;;;;;;;;7403393;19;19999;-87
2022/09/16 11:42:29;;;;;;;2.97;1.80;;;;;;;;;;7406587;19;20399;-87
2022/09/16 11:45:00;;;;;;;2.15;1.60;;;;;;;;;;7407957;19;20395;-88
2022/09/16 11:48:07;;;;;;;4.80;1.40;;;;;;;;;;7405444;19;20002;-88
2022/09/16 11:50:43;;;;;;;2.05;1.65;;;;;;;;;;7407103;19;20010;-86
2022/09/16 11:53:18;;;;;;;1.83;1.55;;;;;;;;;;7408386;19;20593;-85
2022/09/16 11:56:05;;;;;;;1.90;1.15;;;;;;;;;;7407206;19;20019;-86
2022/09/16 11:58:37;;;;;;;4.03;1.15;;;;;;;;;;7408033;19;20060;-85
2022/09/16 12:01:35;;;;;;;1.70;1.20;;;;;;;;;;7407679;19;20010;-83
2022/09/16 12:04:10;;;;;;;4.75;1.27;;;;;;;;;;7405035;19;20090;-83
2022/09/16 12:06:48;;;;;;;1.88;1.42;;;;;;;;;;7393576;19;20489;-78
2022/09/16 12:09:22;;;;;;;2.83;1.38;;;;;;;;;;7390823;19;20026;-78
2022/09/16 12:11:52;;;;;;;1.85;1.00;;;;;;;;;;7389033;19;20014;-83
2022/09/16 12:14:28;;;;;;;4.40;1.42;;;;;;;;;;7383982;19;20027;-83
2022/09/16 12:17:09;;;;;;;;;;;;;;;;;;7388706;19;20017;-83
2022/09/16 12:19:46;;;;;;;2.95;1.40;;;;;;;;;;7392003;19;19918;-83
2022/09/16 12:22:27;;;;;;;1.52;1.35;;;;;;;;;;7386108;19;20369;-82
2022/09/16 12:25:08;;;;;;;2.28;1.42;;;;;;;;;;7394021;19;20002;-85
2022/09/16 12:27:43;;;;;;;1.73;1.20;;;;;;;;;;7395331;19;20006;-85
2022/09/16 12:30:43;;;;;;;2.38;0.95;;;;;;;;;;7395903;19;20573;-80
2022/09/16 12:33:33;;;;;;;2.05;0.90;;;;;;;;;;7393408;19;20770;-87
2022/09/16 12:36:07;;;;;;;1.40;1.00;;;;;;;;;;7399038;19;20037;-88
2022/09/16 12:38:33;;;;;;;1.90;1.00;;;;;;;;;;7397865;19;20019;-88
2022/09/16 12:41:38;;;;;;;1.02;0.88;;;;;;;;;;7395740;19;20006;-86
2022/09/16 12:44:34;;;;;;;1.63;0.80;;;;;;;;;;7397822;19;20003;-87
2022/09/16 12:47:08;;;;;;;1.30;1.17;;;;;;;;;;7401977;19;20016;-86
2022/09/16 12:49:39;;;;;;;1.10;0.90;;;;;;;;;;7401198;19;20010;-86
2022/09/16 12:52:25;;;;;;;0.82;0.82;;;;;;;;;;7406589;19;20411;-86
2022/09/16 12:55:23;;;;;;;1.02;0.88;;;;;;;;;;7401949;19;19999;-86
2022/09/16 12:58:20;;;;;;;1.83;0.77;;;;;;;;;;7402690;19;20011;-86
2022/09/16 13:01:10;;;;;;;1.50;1.00;;;;;;;;;;7405885;19;19994;-86
2022/09/16 13:03:44;;;;;;;2.38;1.27;;;;;;;;;;7401472;19;20002;-86
2022/09/16 13:06:23;;;;;;;1.30;1.20;;;;;;;;;;7401126;19;20019;-86
2022/09/16 13:08:49;;;;;;;1.05;0.90;;;;;;;;;;7404828;19;20015;-87
2022/09/16 13:11:27;;;;;;;2.25;1.20;;;;;;;;;;7402434;19;20023;-87
2022/09/16 13:13:55;;;;;;;2.08;1.10;;;;;;;;;;7396783;19;20010;-82
2022/09/16 13:16:35;;;;;;;2.60;1.02;;;;;;;;;;7399813;19;20489;-86
2022/09/16 13:19:22;;;;;;;4.07;1.20;;;;;;;;;;7397841;19;20010;-84
2022/09/16 13:21:53;;;;;;;1.20;1.10;;;;;;;;;;7400889;19;20002;-84
2022/09/16 13:24:36;;;;;;;3.17;1.13;;;;;;;;;;7393106;19;20015;-86
2022/09/16 13:27:31;;;;;;;1.65;1.25;;;;;;;;;;7393337;19;20018;-82
2022/09/16 13:30:10;;;;;;;4.72;1.40;;;;;;;;;;7392313;19;20125;-82
2022/09/16 13:32:42;;;;;;;3.17;1.35;;;;;;;;;;7398064;19;20360;-79
2022/09/16 13:35:17;;;;;;;1.85;1.20;;;;;;;;;;7397306;19;20018;-88
2022/09/16 13:37:42;;;;;;;1.98;1.33;;;;;;;;;;7401276;19;20042;-91
2022/09/16 13:40:22;;;;;;;1.70;1.00;;;;;;;;;;7401893;19;20006;-88
2022/09/16 13:42:48;;;;;;;2.00;1.20;;;;;;;;;;7401330;19;20676;-86
2022/09/16 13:45:38;;;;;;;5.18;1.35;;;;;;;;;;7400336;19;20018;-85
2022/09/16 13:48:20;;;;;;;2.17;1.50;;;;;;;;;;7392431;19;20013;-84
2022/09/16 13:50:51;;;;;;;5.72;1.70;;;;;;;;;;7398718;19;19999;-84
2022/09/16 13:53:27;;;;;;;1.30;1.20;;;;;;;;;;7394761;19;20369;-84
2022/09/16 13:56:04;;;;;;;3.78;2.00;;;;;;;;;;7393415;19;20006;-85
2022/09/16 13:58:53;;;;;;;2.25;1.52;;;;;;;;;;7397646;19;20006;-84
2022/09/16 14:01:34;;;;;;;2.47;1.40;;;;;;;;;;7394187;19;20007;-87
2022/09/16 14:04:26;;;;;;;2.55;1.30;;;;;;;;;;7389526;19;20002;-87
2022/09/16 14:07:27;;;;;;;1.80;1.35;;;;;;;;;;7391913;19;19998;-83
2022/09/16 14:10:33;;;;;;;3.58;1.40;;;;;;;;;;7396043;19;20018;-83
2022/09/16 14:13:10;;;;;;;1.10;1.00;;;;;;;;;;7390218;19;20007;-83
2022/09/16 14:15:40;;;;;;;2.22;1.27;;;;;;;;;;7394396;19;20014;-81
2022/09/16 14:18:09;;;;;;;1.50;1.20;;;;;;;;;;7392239;19;20018;-78
2022/09/16 14:20:34;;;;;;;3.65;1.40;;;;;;;;;;7393379;19;20046;-82
2022/09/16 14:23:18;;;;;;;2.63;1.60;;;;;;;;;;7392267;19;20074;-82
2022/09/16 14:25:43;;;;;;;3.13;1.27;;;;;;;;;;7395082;19;20003;-82
2022/09/16 14:28:17;;;;;;;2.17;1.48;;;;;;;;;;7389763;19;20726;-82
2022/09/16 14:31:00;;;;;;;3.78;1.50;;;;;;;;;;7391538;19;20462;-83
2022/09/16 14:33:40;;;;;;;1.73;1.50;;;;;;;;;;7390728;19;20355;-82
2022/09/16 14:36:21;;;;;;;2.55;1.45;;;;;;;;;;7395437;19;20499;-82
2022/09/16 14:38:54;;;;;;;2.88;1.65;;;;;;;;;;7392017;19;20003;-82
2022/09/16 14:41:27;;;;;;;1.90;1.33;;;;;;;;;;7393346;19;20471;-82
2022/09/16 14:43:58;;;;;;;1.48;1.25;;;;;;;;;;7394092;19;19995;-82
2022/09/16 14:46:25;;;;;;;3.03;1.23;;;;;;;;;;7390501;19;20474;-82
2022/09/16 14:48:50;;;;;;;4.80;1.25;;;;;;;;;;7393137;19;20010;-87
2022/09/16 14:51:23;;;;;;;4.95;1.55;;;;;;;;;;7392292;19;20023;-83
2022/09/16 14:54:15;;;;;;;1.85;1.63;;;;;;;;;;7396358;19;20002;-83
2022/09/16 14:56:41;;;;;;;1.80;1.33;;;;;;;;;;7395418;19;20035;-83
2022/09/16 14:59:09;;;;;;;1.40;1.25;;;;;;;;;;7389850;19;20014;-84
2022/09/16 15:01:35;;;;;;;4.30;1.55;;;;;;;;;;7392005;19;20018;-70
2022/09/16 15:04:06;;;;;;;2.10;1.38;;;;;;;;;;7385669;19;20034;-69
2022/09/16 15:06:46;;;;;;;1.88;1.20;;;;;;;;;;7391505;19;20031;-69
2022/09/16 15:09:20;;;;;;;3.03;1.40;;;;;;;;;;7391500;19;20466;-69
2022/09/16 15:11:49;;;;;;;2.35;1.50;;;;;;;;;;7387227;19;20002;-69
2022/09/16 15:14:16;;;;;;;2.63;1.33;;;;;;;;;;7389147;19;20005;-70
2022/09/16 15:16:52;;;;;;;2.72;1.45;;;;;;;;;;7390529;19;20696;-69
2022/09/16 15:19:28;;;;;;;1.70;1.35;;;;;;;;;;7393540;19;19998;-70
2022/09/16 15:21:54;;;;;;;4.25;1.58;;;;;;;;;;7393290;19;20003;-69